Time;durP1;ratioP1;P1;durP2;ratioP2;P2;SDS_P1;SDS_P2;PMS_P1;PMS_P2;Temp;Humidity;BMP_temperature;BMP_pressure;BME280_temperature;BME280_humidity;BME280_pressure;Samples;Min_cycle;Max_cycle;Signal;HPM_P1;HPM_P2
2022/10/03 00:00:23;;;;;;;21.13;9.05;;;;;;;8.00;100.00;102533.44;5338918;27;20026;-82
2022/10/03 00:03:21;;;;;;;25.80;10.32;;;;;;;7.95;100.00;102529.22;5339608;27;20389;-82
2022/10/03 00:05:55;;;;;;;;;;;;;;;7.88;100.00;102532.31;5342468;27;20468;-82
2022/10/03 00:08:49;;;;;;;22.75;8.35;;;;;;;7.80;100.00;102515.91;5343496;27;19929;-82
2022/10/03 00:11:23;;;;;;;25.77;9.68;;;;;;;7.75;100.00;102525.00;5337359;27;20147;-81
2022/10/03 00:14:27;;;;;;;25.75;9.75;;;;;;;7.64;100.00;102516.75;5340771;27;22271;-82
2022/10/03 00:17:20;;;;;;;26.05;10.50;;;;;;;7.72;100.00;102525.16;5339412;27;20032;-82
2022/10/03 00:20:01;;;;;;;30.40;11.07;;;;;;;7.65;100.00;102528.25;5341332;27;20032;-82
2022/10/03 00:22:46;;;;;;;35.50;11.10;;;;;;;7.68;100.00;102520.09;5339470;27;20027;-82
2022/10/03 00:25:41;;;;;;;26.85;11.88;;;;;;;7.54;100.00;102526.16;5337972;27;20428;-82
2022/10/03 00:28:18;;;;;;;35.60;12.98;;;;;;;7.54;100.00;102526.16;5339682;27;20019;-82
2022/10/03 00:31:12;;;;;;;23.83;10.18;;;;;;;7.62;100.00;102529.25;5339061;27;20032;-82
2022/10/03 00:34:03;;;;;;;21.08;10.63;;;;;;;7.67;100.00;102540.50;5339079;27;20024;-82
2022/10/03 00:36:52;;;;;;;23.33;10.38;;;;;;;7.70;100.00;102543.00;5340888;27;20031;-82
2022/10/03 00:39:39;;;;;;;24.60;11.85;;;;;;;7.59;100.00;102540.06;5340617;27;20516;-82
2022/10/03 00:42:53;;;;;;;28.20;11.82;;;;;;;7.55;100.00;102543.78;5341502;27;20264;-81
2022/10/03 00:45:54;;;;;;;30.08;11.18;;;;;;;7.55;100.00;102555.28;5337142;27;20049;-82
2022/10/03 00:48:34;;;;;;;30.27;13.05;;;;;;;7.49;100.00;102542.34;5342249;27;20031;-82
2022/10/03 00:51:23;;;;;;;26.23;10.90;;;;;;;7.56;100.00;102553.50;5339641;27;20063;-81
2022/10/03 00:54:32;;;;;;;26.25;12.15;;;;;;;7.61;100.00;102554.13;5320555;27;20029;-81
2022/10/03 00:57:36;;;;;;;31.73;13.63;;;;;;;7.43;100.00;102552.41;5338506;27;20372;-81
2022/10/03 01:00:23;;;;;;;25.52;11.65;;;;;;;7.38;100.00;102553.53;5339066;27;20023;-82
2022/10/03 01:03:18;;;;;;;22.13;10.95;;;;;;;7.49;100.00;102557.41;5338523;27;20470;-82
2022/10/03 01:06:05;;;;;;;31.60;13.73;;;;;;;7.43;100.00;102553.25;5339482;27;20056;-82
2022/10/03 01:08:46;;;;;;;30.63;13.23;;;;;;;7.10;100.00;102566.47;5340012;27;20043;-82
2022/10/03 01:11:30;;;;;;;34.00;12.52;;;;;;;7.25;100.00;102572.81;5340275;27;20431;-82
2022/10/03 01:14:16;;;;;;;34.95;13.45;;;;;;;7.05;100.00;102577.34;5337148;27;20053;-82
2022/10/03 01:17:30;;;;;;;32.70;13.35;;;;;;;7.26;100.00;102577.16;5337527;27;20024;-82
2022/10/03 01:20:13;;;;;;;28.90;12.40;;;;;;;7.31;100.00;102583.97;5336522;27;20032;-82
2022/10/03 01:23:03;;;;;;;33.10;12.70;;;;;;;7.50;100.00;102586.53;5339270;27;20586;-82
2022/10/03 01:26:11;;;;;;;28.70;12.88;;;;;;;7.39;100.00;102586.22;5338229;27;20035;-82
2022/10/03 01:31:41;;;;;;;28.70;12.68;;;;;;;7.38;100.00;102585.38;5340037;27;20327;-82
2022/10/03 01:34:25;;;;;;;21.70;10.93;;;;;;;7.50;100.00;102589.19;5339781;27;20034;-82
2022/10/03 01:37:10;;;;;;;27.80;14.60;;;;;;;7.28;100.00;102588.59;5340288;27;20453;-81
2022/10/03 01:39:47;;;;;;;36.83;14.98;;;;;;;7.18;100.00;102593.50;5339729;27;20507;-82
2022/10/03 01:42:51;;;;;;;28.40;12.65;;;;;;;7.32;100.00;102595.44;5338846;27;20024;-82
2022/10/03 01:46:07;;;;;;;31.42;14.75;;;;;;;7.13;100.00;102592.84;5319354;27;20026;-82
2022/10/03 01:49:07;;;;;;;29.80;12.65;;;;;;;7.12;100.00;102593.81;5295514;27;20452;-82
2022/10/03 01:51:57;;;;;;;28.50;12.73;;;;;;;7.18;100.00;102590.84;5340715;27;20358;-81
2022/10/03 01:54:32;;;;;;;27.65;13.95;;;;;;;7.15;100.00;102594.50;5341803;27;20129;-82
2022/10/03 01:57:28;;;;;;;29.45;14.20;;;;;;;7.17;100.00;102597.06;5339750;27;20019;-82
2022/10/03 02:00:09;;;;;;;27.77;14.55;;;;;;;7.04;100.00;102590.69;5338979;27;20042;-82
2022/10/03 02:02:51;;;;;;;37.60;14.13;;;;;;;6.81;100.00;102587.38;5338919;27;20019;-81
2022/10/03 02:06:00;;;;;;;29.63;13.82;;;;;;;6.85;100.00;102583.63;5318674;27;20028;-82
2022/10/03 02:08:48;;;;;;;32.80;13.55;;;;;;;6.91;100.00;102590.44;5306736;27;20035;-82
2022/10/03 02:11:48;;;;;;;25.52;12.40;;;;;;;7.07;100.00;102604.66;5338832;27;20389;-82
2022/10/03 02:14:44;;;;;;;29.45;13.73;;;;;;;7.08;100.00;102593.13;5318668;27;20034;-82
2022/10/03 02:17:34;;;;;;;30.63;13.30;;;;;;;7.24;100.00;102603.81;5319533;27;20389;-81
2022/10/03 02:20:28;;;;;;;38.60;16.20;;;;;;;7.19;100.00;102606.69;5339557;27;20026;-82
2022/10/03 02:22:59;;;;;;;26.13;14.90;;;;;;;7.28;100.00;102597.41;5337692;27;20039;-81
2022/10/03 02:26:01;;;;;;;29.02;15.82;;;;;;;7.30;100.00;102599.97;5339901;27;20027;-82
2022/10/03 02:28:54;;;;;;;33.55;16.08;;;;;;;7.26;100.00;102601.06;5340094;27;20038;-82
2022/10/03 02:31:56;;;;;;;30.08;15.80;;;;;;;7.41;100.00;102600.28;5338268;27;20032;-81
2022/10/03 02:34:58;;;;;;;30.20;14.93;;;;;;;7.44;100.00;102594.81;5339952;27;20106;-81
2022/10/03 02:37:49;;;;;;;35.10;15.05;;;;;;;7.46;100.00;102602.69;5339094;27;20485;-82
2022/10/03 02:40:48;;;;;;;27.83;15.23;;;;;;;7.42;100.00;102601.16;5339507;27;20377;-82
2022/10/03 02:43:42;;;;;;;33.05;16.00;;;;;;;7.43;100.00;102606.34;5319981;27;20035;-82
2022/10/03 02:46:47;;;;;;;38.05;15.35;;;;;;;7.57;100.00;102603.00;5336830;27;20077;-82
2022/10/03 02:49:35;;;;;;;35.30;18.85;;;;;;;7.41;100.00;102599.44;5337357;27;20170;-82
2022/10/03 02:52:33;;;;;;;40.20;17.13;;;;;;;7.29;100.00;102592.94;5338378;27;20032;-82
2022/10/03 02:55:28;;;;;;;38.58;16.95;;;;;;;7.11;100.00;102594.75;5320523;27;20130;-82
2022/10/03 02:58:20;;;;;;;34.55;15.20;;;;;;;7.17;100.00;102597.06;5339285;27;20420;-82
2022/10/03 03:01:19;;;;;;;34.55;16.50;;;;;;;7.12;100.00;102599.13;5337536;27;20108;-82
2022/10/03 03:04:09;;;;;;;26.30;14.82;;;;;;;7.19;100.00;102600.53;5334960;27;20044;-82
2022/10/03 03:06:56;;;;;;;28.33;15.35;;;;;;;7.13;100.00;102603.47;5319128;27;20097;-83
2022/10/03 03:09:33;;;;;;;33.50;17.17;;;;;;;7.05;100.00;102601.22;5337330;27;20028;-83
2022/10/03 03:12:47;;;;;;;29.40;16.15;;;;;;;7.09;100.00;102600.13;5337318;27;20035;-83
2022/10/03 03:15:35;;;;;;;38.65;15.73;;;;;;;7.14;100.00;102597.25;5334658;27;20039;-82
2022/10/03 03:18:28;;;;;;;31.00;15.38;;;;;;;7.19;100.00;102593.41;5337442;27;20474;-83
2022/10/03 03:21:02;;;;;;;36.75;18.02;;;;;;;7.18;100.00;102609.41;5337463;27;20563;-82
2022/10/03 03:23:40;;;;;;;35.80;17.20;;;;;;;7.17;100.00;102610.34;5333179;27;20036;-83
2022/10/03 03:26:21;;;;;;;32.30;17.45;;;;;;;7.05;100.00;102609.19;5338034;27;20036;-83
2022/10/03 03:29:31;;;;;;;37.17;17.33;;;;;;;7.05;100.00;102605.63;5337220;27;20032;-83
2022/10/03 03:32:35;;;;;;;34.15;16.77;;;;;;;7.01;100.00;102612.91;5332351;27;20035;-83
2022/10/03 03:35:19;;;;;;;30.50;16.08;;;;;;;7.00;100.00;102611.19;5279112;27;20140;-83
2022/10/03 03:38:18;;;;;;;35.97;17.65;;;;;;;6.91;100.00;102609.84;5338464;27;20020;-83
2022/10/03 03:40:56;;;;;;;37.00;18.17;;;;;;;6.80;100.00;102613.03;5322245;27;28096;-83
2022/10/03 03:43:54;;;;;;;36.95;18.05;;;;;;;6.72;100.00;102619.66;5341359;27;20076;-82
2022/10/03 03:46:58;;;;;;;29.10;16.55;;;;;;;6.71;100.00;102618.75;5339615;27;20130;-83
2022/10/03 03:49:45;;;;;;;32.13;15.63;;;;;;;6.81;100.00;102612.09;5342637;27;20031;-82
2022/10/03 03:52:43;;;;;;;34.70;17.00;;;;;;;6.76;100.00;102621.22;5320726;27;20031;-83
2022/10/03 03:55:40;;;;;;;32.33;17.00;;;;;;;6.69;100.00;102623.28;5340165;27;20122;-82
2022/10/03 03:58:17;;;;;;;33.75;16.38;;;;;;;6.71;100.00;102626.72;5342338;27;20038;-83
2022/10/03 04:01:07;;;;;;;34.65;18.85;;;;;;;6.66;100.00;102618.13;5338559;27;20411;-83
2022/10/03 04:04:34;;;;;;;22.70;13.82;;;;;;;6.72;100.00;102622.31;5338688;27;20031;-82
2022/10/03 04:07:15;;;;;;;33.22;16.90;;;;;;;6.73;100.00;102624.00;5276348;27;20052;-83
2022/10/03 04:10:06;;;;;;;38.38;18.25;;;;;;;6.80;100.00;102625.41;5320420;27;20126;-82
2022/10/03 04:13:08;;;;;;;37.55;16.80;;;;;;;6.80;100.00;102621.00;5316978;27;20055;-83
2022/10/03 04:16:05;;;;;;;33.67;18.48;;;;;;;6.70;100.00;102619.72;5338794;27;20549;-82
2022/10/03 04:19:03;;;;;;;29.08;15.65;;;;;;;6.76;100.00;102631.81;5322951;27;20414;-83
2022/10/03 04:21:50;;;;;;;33.15;16.67;;;;;;;6.64;100.00;102630.59;5339110;27;20072;-82
2022/10/03 04:24:31;;;;;;;34.53;17.17;;;;;;;6.69;100.00;102631.25;5338546;27;20052;-82
2022/10/03 04:27:12;;;;;;;28.17;15.07;;;;;;;6.71;100.00;102626.72;5320288;27;20035;-83
2022/10/03 04:30:07;;;;;;;32.63;15.43;;;;;;;6.74;100.00;102629.22;5321942;27;20224;-83
2022/10/03 04:33:17;;;;;;;285.08;30.55;;;;;;;6.66;100.00;102635.84;5321265;27;20031;-83
2022/10/03 04:36:14;;;;;;;27.88;16.73;;;;;;;6.80;100.00;102636.03;5341950;27;20106;-82
2022/10/03 04:39:00;;;;;;;23.50;12.70;;;;;;;6.71;100.00;102617.91;5340729;27;20031;-81
2022/10/03 04:41:41;;;;;;;25.15;13.52;;;;;;;6.92;100.00;102643.38;5339110;27;20020;-83
2022/10/03 04:44:50;;;;;;;29.50;16.60;;;;;;;6.85;100.00;102635.81;5340139;27;20062;-82
2022/10/03 04:47:41;;;;;;;27.98;13.50;;;;;;;6.94;100.00;102628.28;5321231;27;20432;-82
2022/10/03 04:50:40;;;;;;;36.90;16.38;;;;;;;6.69;100.00;102619.78;5328739;27;20074;-82
2022/10/03 04:53:20;;;;;;;28.23;13.68;;;;;;;6.92;100.00;102621.31;5286245;27;20043;-82
2022/10/03 04:56:04;;;;;;;26.25;15.25;;;;;;;6.93;100.00;102631.84;5338641;27;20032;-82
2022/10/03 04:58:42;;;;;;;31.73;15.35;;;;;;;6.92;100.00;102623.97;5341866;27;20028;-82
2022/10/03 05:01:23;;;;;;;31.52;15.80;;;;;;;6.68;100.00;102626.00;5337828;27;20115;-82
2022/10/03 05:04:09;;;;;;;29.52;16.60;;;;;;;6.58;100.00;102621.16;5338123;27;20085;-82
2022/10/03 05:06:54;;;;;;;34.13;17.65;;;;;;;6.48;100.00;102627.81;5332584;27;21232;-82
2022/10/03 05:09:40;;;;;;;29.55;15.55;;;;;;;6.51;100.00;102626.84;5312594;28;20039;-82
2022/10/03 05:12:27;;;;;;;42.00;16.17;;;;;;;6.42;100.00;102630.78;5313059;28;20039;-82
2022/10/03 05:15:25;;;;;;;30.83;16.80;;;;;;;6.40;100.00;102635.28;5314880;27;20262;-82
2022/10/03 05:18:25;;;;;;;31.77;16.27;;;;;;;6.47;100.00;102644.69;5313837;27;20579;-82
2022/10/03 05:21:04;;;;;;;28.05;15.48;;;;;;;6.44;100.00;102635.06;5315586;27;20351;-82
2022/10/03 05:24:02;;;;;;;27.98;14.25;;;;;;;6.52;100.00;102647.97;5310391;27;20135;-82
2022/10/03 05:26:33;;;;;;;25.60;13.35;;;;;;;6.46;100.00;102645.59;5317832;27;20040;-82
2022/10/03 05:29:24;;;;;;;48.42;14.68;;;;;;;6.35;100.00;102642.59;5318980;28;20036;-81
2022/10/03 05:31:59;;;;;;;28.02;12.82;;;;;;;6.47;100.00;102647.31;5320619;27;20067;-82
2022/10/03 05:35:08;;;;;;;26.23;14.95;;;;;;;6.48;100.00;102650.81;5319316;27;20035;-81
2022/10/03 05:37:48;;;;;;;32.90;15.45;;;;;;;6.66;100.00;102655.25;5320687;28;20039;-81
2022/10/03 05:40:28;;;;;;;30.95;15.45;;;;;;;6.84;100.00;102657.97;5320286;27;20047;-82
2022/10/03 05:43:37;;;;;;;39.60;19.63;;;;;;;6.79;100.00;102664.34;5315254;27;20448;-83
2022/10/03 05:46:19;;;;;;;31.42;17.40;;;;;;;6.94;100.00;102661.88;5319211;27;20028;-82
2022/10/03 05:49:07;;;;;;;32.67;17.25;;;;;;;7.04;100.00;102673.78;5321579;27;20115;-82
2022/10/03 05:52:06;;;;;;;30.83;18.30;;;;;;;7.07;100.00;102665.69;5315616;27;20016;-82
2022/10/03 05:54:49;;;;;;;38.88;19.00;;;;;;;7.08;100.00;102667.41;5335515;27;20124;-82
2022/10/03 05:57:33;;;;;;;40.78;19.30;;;;;;;7.06;100.00;102669.25;5319187;28;20029;-84
2022/10/03 06:00:23;;;;;;;34.53;18.02;;;;;;;6.98;100.00;102659.03;5317171;28;20035;-83
2022/10/03 06:03:24;;;;;;;41.83;19.65;;;;;;;6.99;100.00;102671.38;5320715;28;20070;-84
2022/10/03 06:05:58;;;;;;;37.28;19.55;;;;;;;7.02;100.00;102675.66;5320005;27;20134;-83
2022/10/03 06:08:39;;;;;;;38.10;20.10;;;;;;;6.92;100.00;102675.22;5344517;27;20031;-84
2022/10/03 06:11:40;;;;;;;36.60;16.83;;;;;;;7.08;100.00;102683.34;5322321;27;20035;-83
2022/10/03 06:14:31;;;;;;;37.80;17.50;;;;;;;7.13;100.00;102689.25;5342992;27;20377;-84
2022/10/03 06:17:30;;;;;;;54.75;38.55;;;;;;;7.14;100.00;102685.66;5346805;27;20035;-84
2022/10/03 06:20:03;;;;;;;48.72;28.90;;;;;;;7.23;100.00;102689.66;5345456;27;20085;-83
2022/10/03 06:22:56;;;;;;;43.13;24.08;;;;;;;7.27;100.00;102663.84;5347748;27;20011;-83
2022/10/03 06:25:49;;;;;;;40.05;20.73;;;;;;;7.53;100.00;102689.06;5344874;27;20027;-84
2022/10/03 06:29:02;;;;;;;41.15;22.75;;;;;;;7.89;100.00;102698.78;5343263;27;20043;-84
2022/10/03 06:32:00;;;;;;;39.67;20.10;;;;;;;7.76;100.00;102696.72;5265938;27;20035;-83
2022/10/03 06:34:49;;;;;;;32.25;18.58;;;;;;;7.71;100.00;102697.91;5338068;27;20038;-84
2022/10/03 06:37:59;;;;;;;48.63;22.05;;;;;;;7.84;100.00;102700.81;5343096;27;20019;-84
2022/10/03 06:40:58;;;;;;;48.60;23.33;;;;;;;7.74;100.00;102687.97;5320935;27;20490;-84
2022/10/03 06:43:52;;;;;;;33.97;18.05;;;;;;;8.00;100.00;102680.44;5340231;27;20388;-84
2022/10/03 06:46:39;;;;;;;44.22;21.10;;;;;;;8.03;100.00;102695.38;5343162;27;20059;-84
2022/10/03 06:49:29;;;;;;;33.72;18.02;;;;;;;8.14;100.00;102685.03;5338711;27;20065;-84
2022/10/03 06:52:14;;;;;;;1513.57;165.40;;;;;;;8.88;100.00;102684.56;5337018;27;20082;-84
2022/10/03 06:55:11;;;;;;;645.35;74.75;;;;;;;9.35;100.00;102700.56;5340812;27;20446;-84
2022/10/03 06:58:16;;;;;;;1999.90;319.60;;;;;;;10.25;100.00;102693.44;5337595;27;20032;-84
2022/10/03 07:01:05;;;;;;;1194.65;163.10;;;;;;;10.72;100.00;102703.81;5339919;27;20032;-84
2022/10/03 07:03:58;;;;;;;584.90;75.93;;;;;;;10.67;100.00;102703.22;5340003;27;20466;-85
2022/10/03 07:06:54;;;;;;;566.72;71.10;;;;;;;11.05;100.00;102718.59;5322346;27;20046;-85
2022/10/03 07:09:38;;;;;;;34.53;19.58;;;;;;;10.97;100.00;102711.09;5337140;27;20031;-85
2022/10/03 07:12:32;;;;;;;26.17;15.77;;;;;;;11.34;100.00;102713.16;5341739;27;20043;-85
2022/10/03 07:15:13;;;;;;;21.02;13.32;;;;;;;11.68;100.00;102711.75;5323494;27;20539;-84
2022/10/03 07:17:57;;;;;;;19.25;10.35;;;;;;;11.70;100.00;102717.00;5343275;27;20024;-84
2022/10/03 07:20:31;;;;;;;13.23;8.82;;;;;;;12.29;100.00;102716.53;5353897;27;20036;-84
2022/10/03 07:23:39;;;;;;;9.68;6.28;;;;;;;12.99;100.00;102721.31;5353533;27;20066;-83
2022/10/03 07:26:25;;;;;;;13.70;5.78;;;;;;;13.35;100.00;102713.38;5354445;27;20044;-85
2022/10/03 07:29:05;;;;;;;8.63;5.45;;;;;;;13.83;100.00;102732.06;5347513;27;20092;-85
2022/10/03 07:31:56;;;;;;;11.48;4.82;;;;;;;14.68;100.00;102728.16;5345500;27;20020;-85
2022/10/03 07:35:16;;;;;;;8.43;4.30;;;;;;;15.48;100.00;102727.84;5325122;27;20047;-85
2022/10/03 07:41:44;;;;;;;7.20;3.45;;;;;;;16.44;100.00;102717.84;5278450;28;20028;-85
2022/10/03 07:44:28;;;;;;;6.65;3.50;;;;;;;15.98;100.00;102713.75;5318357;27;20031;-85
2022/10/03 07:47:09;;;;;;;7.43;3.80;;;;;;;16.47;100.00;102700.53;5345119;27;20039;-85
2022/10/03 07:50:09;;;;;;;7.15;3.17;;;;;;;17.31;100.00;102708.25;5342057;27;20023;-85
2022/10/03 07:52:59;;;;;;;7.93;3.60;;;;;;;17.82;100.00;102710.78;5340991;27;20030;-86
2022/10/03 07:55:53;;;;;;;5.72;3.28;;;;;;;18.64;100.00;102707.38;5344228;27;20078;-85
2022/10/03 07:58:41;;;;;;;7.25;3.22;;;;;;;18.95;100.00;102711.63;5340144;27;20093;-85
2022/10/03 08:01:25;;;;;;;11.80;3.95;;;;;;;18.89;100.00;102718.50;5344106;27;20035;-85
2022/10/03 08:04:25;;;;;;;6.88;3.40;;;;;;;19.66;100.00;102724.31;5341464;27;20059;-85
2022/10/03 08:07:19;;;;;;;6.68;3.08;;;;;;;19.45;100.00;102722.78;5326394;27;20047;-85
2022/10/03 08:09:54;;;;;;;7.10;3.17;;;;;;;19.30;100.00;102723.47;5339817;27;20028;-85
2022/10/03 08:13:06;;;;;;;8.43;3.28;;;;;;;19.86;100.00;102726.84;5340215;27;20058;-85
2022/10/03 08:16:03;;;;;;;8.80;3.10;;;;;;;19.25;100.00;102707.72;5327732;27;20032;-85
2022/10/03 08:19:15;;;;;;;10.63;3.60;;;;;;;18.80;100.00;102714.81;5340401;27;20397;-85
2022/10/03 08:22:12;;;;;;;7.55;3.65;;;;;;;19.45;100.00;102720.06;5339622;27;20405;-85
2022/10/03 08:25:14;;;;;;;8.57;3.60;;;;;;;20.97;100.00;102713.38;5342780;27;20043;-85
2022/10/03 08:28:08;;;;;;;9.48;3.88;;;;;;;21.26;100.00;102714.75;5322283;27;20539;-85
2022/10/03 08:31:01;;;;;;;10.30;3.60;;;;;;;21.88;100.00;102722.44;5342947;27;20020;-85
2022/10/03 08:33:47;;;;;;;7.50;3.72;;;;;;;22.07;100.00;102713.91;5340638;27;20023;-85
2022/10/03 08:36:27;;;;;;;;;;;;;;;24.01;100.00;102720.38;5336928;27;21696;-85
2022/10/03 08:39:12;;;;;;;8.70;3.25;;;;;;;23.30;100.00;102717.94;5343299;27;20010;-85
2022/10/03 08:42:10;;;;;;;5.05;2.85;;;;;;;25.42;100.00;102723.81;5341777;27;20088;-85
2022/10/03 08:45:03;;;;;;;8.05;3.38;;;;;;;25.84;100.00;102726.66;5341475;27;20373;-85
2022/10/03 08:47:47;;;;;;;5.45;2.78;;;;;;;25.81;100.00;102722.44;5343503;27;20114;-85
2022/10/03 08:50:37;;;;;;;6.05;2.72;;;;;;;25.47;100.00;102725.94;5343160;27;20039;-85
2022/10/03 08:53:20;;;;;;;7.80;3.05;;;;;;;26.84;100.00;102729.13;5342155;27;20043;-85
2022/10/03 08:56:13;;;;;;;7.43;2.75;;;;;;;26.66;100.00;102722.34;5343023;27;20043;-86
2022/10/03 08:59:03;;;;;;;7.75;2.95;;;;;;;25.80;100.00;102725.38;5340266;27;20043;-85
2022/10/03 09:01:59;;;;;;;9.40;2.78;;;;;;;25.80;100.00;102722.66;5341409;27;20036;-85
2022/10/03 09:05:21;;;;;;;7.10;2.70;;;;;;;26.81;100.00;102719.47;5343537;27;20102;-85
2022/10/03 09:08:30;;;;;;;8.38;2.65;;;;;;;26.33;100.00;102723.03;5307814;27;20436;-85
2022/10/03 09:11:19;;;;;;;12.40;2.65;;;;;;;26.58;100.00;102720.59;5339171;27;20042;-85
2022/10/03 09:14:27;;;;;;;7.72;3.08;;;;;;;28.24;100.00;102737.44;5322919;27;21963;-85
2022/10/03 09:17:09;;;;;;;7.47;2.65;;;;;;;28.05;100.00;102729.06;5338695;27;20035;-85
2022/10/03 09:20:09;;;;;;;9.48;3.03;;;;;;;28.33;100.00;102727.94;5342528;27;20020;-85
2022/10/03 09:22:56;;;;;;;7.57;2.92;;;;;;;27.17;100.00;102726.47;5339272;27;20030;-85
2022/10/03 09:25:45;;;;;;;7.68;2.90;;;;;;;26.49;100.00;102723.72;5342237;27;20113;-84
2022/10/03 09:28:47;;;;;;;10.27;2.88;;;;;;;27.52;100.00;102721.72;5339733;27;20103;-85
2022/10/03 09:32:01;;;;;;;6.10;2.70;;;;;;;28.08;100.00;102725.03;5341787;27;20090;-85
2022/10/03 09:35:03;;;;;;;8.00;2.13;;;;;;;27.88;100.00;102719.56;5339670;27;20021;-85
2022/10/03 09:37:38;;;;;;;10.00;2.17;;;;;;;27.63;84.27;102708.41;5323345;27;21113;-85
2022/10/03 09:40:54;;;;;;;7.22;2.10;;;;;;;26.78;100.00;102709.75;5342548;27;20378;-85
2022/10/03 09:43:43;;;;;;;7.70;2.50;;;;;;;25.51;100.00;102696.34;5338783;27;20027;-85
2022/10/03 09:46:39;;;;;;;7.95;2.60;;;;;;;24.41;100.00;102696.41;5343933;27;20042;-85
2022/10/03 09:49:33;;;;;;;6.80;1.95;;;;;;;23.34;100.00;102699.34;5342326;27;20032;-84
2022/10/03 09:52:25;;;;;;;6.78;2.03;;;;;;;22.36;100.00;102692.59;5340451;27;20051;-84
2022/10/03 09:55:18;;;;;;;7.57;2.50;;;;;;;21.90;100.00;102691.34;5322297;27;20362;-84
2022/10/03 09:58:28;;;;;;;7.30;2.13;;;;;;;21.97;100.00;102686.06;5341418;27;20016;-84
2022/10/03 10:01:08;;;;;;;7.53;2.30;;;;;;;22.02;100.00;102685.53;5341117;27;20085;-84
2022/10/03 10:03:45;;;;;;;8.57;2.05;;;;;;;22.74;100.00;102690.03;5320861;27;20114;-84
2022/10/03 10:06:47;;;;;;;7.22;1.67;;;;;;;24.41;100.00;102690.09;5340597;27;20806;-83
2022/10/03 10:09:36;;;;;;;10.57;2.47;;;;;;;24.59;100.00;102684.28;5341735;27;20041;-84
2022/10/03 10:12:32;;;;;;;5.00;1.90;;;;;;;25.70;100.00;102684.75;5344752;27;20043;-84
2022/10/03 10:15:21;;;;;;;6.57;1.90;;;;;;;25.43;100.00;102686.41;5343988;27;20519;-84
2022/10/03 10:18:17;;;;;;;10.32;1.63;;;;;;;26.83;100.00;102681.78;5341996;27;20370;-84
2022/10/03 10:21:26;;;;;;;5.13;1.90;;;;;;;27.92;96.71;102697.00;5338713;27;20409;-84
2022/10/03 10:24:22;;;;;;;5.35;1.83;;;;;;;26.82;100.00;102684.72;5323912;27;20028;-84
2022/10/03 10:27:22;;;;;;;5.07;1.73;;;;;;;28.08;100.00;102697.59;5341377;27;20035;-84
2022/10/03 10:30:19;;;;;;;5.80;1.40;;;;;;;27.88;85.18;102695.72;5266900;27;20492;-84
2022/10/03 10:33:23;;;;;;;8.60;1.98;;;;;;;28.02;94.85;102693.00;5335775;27;20074;-85
2022/10/03 10:36:22;;;;;;;3.60;1.08;;;;;;;29.09;81.36;102678.78;5342233;27;20038;-84
2022/10/03 10:39:29;;;;;;;7.35;1.77;;;;;;;30.49;77.89;102674.66;5347366;27;20095;-85
2022/10/03 10:42:03;;;;;;;;;;;;;;;32.34;65.52;102680.00;5341733;27;20023;-85
2022/10/03 10:45:09;;;;;;;6.10;1.88;;;;;;;31.43;75.72;102676.84;5338261;27;19916;-85
2022/10/03 10:48:10;;;;;;;5.32;1.95;;;;;;;32.86;85.65;102684.63;5339883;27;20085;-85
2022/10/03 10:51:09;;;;;;;6.70;1.38;;;;;;;32.52;67.34;102687.28;5325049;27;20020;-84
2022/10/03 10:54:02;;;;;;;4.70;1.70;;;;;;;31.57;65.76;102688.50;5342914;27;20115;-85
2022/10/03 10:56:58;;;;;;;6.65;2.17;;;;;;;29.15;67.54;102677.88;5348909;27;20473;-85
2022/10/03 10:59:51;;;;;;;7.05;1.73;;;;;;;27.21;98.20;102674.88;5344479;27;20497;-85
2022/10/03 11:02:28;;;;;;;5.15;1.70;;;;;;;26.57;100.00;102685.22;5341118;27;20028;-85
2022/10/03 11:05:44;;;;;;;5.72;1.88;;;;;;;27.79;97.48;102682.44;5327261;27;20024;-85
2022/10/03 11:09:00;;;;;;;5.78;1.70;;;;;;;29.65;97.32;102679.81;5345404;27;20493;-85
2022/10/03 11:12:15;;;;;;;6.53;1.42;;;;;;;32.33;73.07;102688.53;5350268;27;20042;-85
2022/10/03 11:15:05;;;;;;;10.30;2.10;;;;;;;30.98;51.87;102678.22;5343559;27;20039;-85
2022/10/03 11:17:59;;;;;;;6.43;1.30;;;;;;;32.09;54.41;102676.72;5328621;28;20097;-85
2022/10/03 11:20:53;;;;;;;6.47;1.73;;;;;;;31.99;60.33;102669.84;5329074;28;20075;-85
2022/10/03 11:23:34;;;;;;;4.57;1.42;;;;;;;31.75;60.42;102660.81;5345562;27;20549;-85
2022/10/03 11:26:30;;;;;;;5.05;1.60;;;;;;;30.30;54.56;102649.88;5350547;27;20939;-85
2022/10/03 11:30:03;;;;;;;4.15;1.52;;;;;;;32.12;65.12;102663.28;5349874;27;20370;-85
2022/10/03 11:33:08;;;;;;;6.60;1.50;;;;;;;32.41;53.55;102655.00;5241800;28;20506;-85
2022/10/03 11:36:10;;;;;;;6.72;1.30;;;;;;;33.05;45.19;102646.53;5342557;27;20122;-85
2022/10/03 11:38:48;;;;;;;5.18;1.35;;;;;;;32.78;69.90;102658.25;5340852;27;20023;-85
2022/10/03 11:41:38;;;;;;;5.30;1.42;;;;;;;33.63;58.05;102660.16;5341957;27;20035;-85
2022/10/03 11:44:26;;;;;;;6.28;1.58;;;;;;;35.35;44.30;102652.38;5342329;27;20110;-85
2022/10/03 11:47:16;;;;;;;6.00;1.58;;;;;;;33.97;49.56;102660.09;5342857;27;20031;-85
2022/10/03 11:50:12;;;;;;;5.07;1.50;;;;;;;36.14;42.81;102661.69;5343492;27;20032;-85
2022/10/03 11:53:11;;;;;;;7.80;1.77;;;;;;;35.64;41.98;102657.53;5346011;27;20146;-85
2022/10/03 11:56:28;;;;;;;4.97;2.00;;;;;;;35.67;42.21;102665.34;5349080;27;20038;-85
2022/10/03 11:59:17;;;;;;;5.47;1.40;;;;;;;34.67;40.19;102656.47;5347141;27;20082;-85
2022/10/03 12:02:45;;;;;;;7.05;1.77;;;;;;;32.01;56.25;102658.59;5343245;27;20056;-84
2022/10/03 12:05:34;;;;;;;6.18;1.65;;;;;;;28.72;59.91;102649.25;5286759;27;20051;-84
2022/10/03 12:11:25;;;;;;;7.30;1.83;;;;;;;30.56;56.25;102649.78;5347269;27;20036;-84
2022/10/03 12:14:08;;;;;;;4.93;1.55;;;;;;;32.32;73.07;102653.75;5342469;27;20367;-84
2022/10/03 12:16:44;;;;;;;4.95;1.58;;;;;;;33.07;53.81;102646.28;5320346;27;20049;-85
2022/10/03 12:19:29;;;;;;;5.35;1.50;;;;;;;34.82;51.96;102643.91;5347929;27;20028;-85
2022/10/03 12:22:28;;;;;;;7.22;1.80;;;;;;;34.84;40.53;102637.00;5346975;27;20382;-85
2022/10/03 12:25:15;;;;;;;4.88;1.85;;;;;;;31.99;40.47;102634.00;5343956;27;20059;-85
2022/10/03 12:28:01;;;;;;;6.93;1.85;;;;;;;30.61;64.33;102627.88;5346429;27;20031;-85
2022/10/03 12:31:03;;;;;;;5.53;1.70;;;;;;;28.75;90.14;102629.59;5348523;27;20486;-84
2022/10/03 12:33:35;;;;;;;5.05;1.73;;;;;;;26.73;100.00;102630.16;5309405;27;20039;-84
2022/10/03 12:36:14;;;;;;;5.73;2.20;;;;;;;26.26;90.02;102622.81;5329113;27;20477;-84
2022/10/03 12:39:13;;;;;;;10.52;2.22;;;;;;;25.91;100.00;102620.97;5347014;27;20250;-84
2022/10/03 12:42:13;;;;;;;6.40;1.80;;;;;;;25.13;100.00;102621.00;5348988;27;20080;-84
2022/10/03 12:44:55;;;;;;;7.15;2.03;;;;;;;24.67;100.00;102613.25;5348613;27;20424;-84
2022/10/03 12:47:50;;;;;;;9.48;1.80;;;;;;;24.43;100.00;102606.22;5347836;27;20477;-84
2022/10/03 12:51:00;;;;;;;6.97;2.42;;;;;;;24.91;100.00;102603.78;5346343;27;20519;-84
2022/10/03 12:53:54;;;;;;;4.95;1.67;;;;;;;24.66;100.00;102603.34;5285623;27;20040;-84
2022/10/03 12:56:48;;;;;;;6.88;1.75;;;;;;;24.48;100.00;102617.41;5318993;27;20034;-83
2022/10/03 12:59:37;;;;;;;5.32;1.70;;;;;;;23.85;100.00;102606.13;5329179;27;20034;-83
2022/10/03 13:02:44;;;;;;;5.20;1.40;;;;;;;24.01;100.00;102613.25;5334907;27;20385;-84
2022/10/03 13:05:38;;;;;;;5.25;1.48;;;;;;;23.44;100.00;102612.81;5298715;27;20043;-84
2022/10/03 13:08:37;;;;;;;8.95;1.58;;;;;;;23.10;100.00;102616.03;5348190;27;20097;-83
2022/10/03 13:11:49;;;;;;;7.28;1.80;;;;;;;22.87;100.00;102596.97;5325163;27;20389;-84
2022/10/03 13:15:02;;;;;;;9.55;2.67;;;;;;;22.62;100.00;102597.13;5321973;27;20030;-83
2022/10/03 13:18:04;;;;;;;6.70;1.70;;;;;;;22.37;100.00;102601.84;5299320;27;20173;-85
2022/10/03 13:20:44;;;;;;;6.68;2.10;;;;;;;22.28;100.00;102585.63;5344475;27;20415;-84